sensor_id;sensor_type;location;lat;lon;timestamp;pressure;altitude;pressure_sealevel;temperature;humidity
54600;BME280;40500;51.084;16.958;2023-08-01T00:02:46;99281.05;;;19.41;100.00
54600;BME280;40500;51.084;16.958;2023-08-01T00:05:19;99277.00;;;19.41;100.00
54600;BME280;40500;51.084;16.958;2023-08-01T00:08:10;99273.68;;;19.40;100.00
54600;BME280;40500;51.084;16.958;2023-08-01T00:10:45;99267.34;;;19.39;100.00
54600;BME280;40500;51.084;16.958;2023-08-01T00:13:36;99265.00;;;19.37;100.00
54600;BME280;40500;51.084;16.958;2023-08-01T00:16:31;99259.81;;;19.35;100.00
54600;BME280;40500;51.084;16.958;2023-08-01T00:19:27;99252.78;;;19.31;100.00
54600;BME280;40500;51.084;16.958;2023-08-01T00:21:58;99246.48;;;19.30;100.00
54600;BME280;40500;51.084;16.958;2023-08-01T00:24:51;99246.23;;;19.28;100.00
54600;BME280;40500;51.084;16.958;2023-08-01T00:27:46;99241.52;;;19.25;100.00
54600;BME280;40500;51.084;16.958;2023-08-01T00:30:17;99237.25;;;19.23;100.00
54600;BME280;40500;51.084;16.958;2023-08-01T00:32:51;99234.20;;;19.20;100.00
54600;BME280;40500;51.084;16.958;2023-08-01T00:35:55;99233.13;;;19.18;100.00
54600;BME280;40500;51.084;16.958;2023-08-01T00:38:53;99227.71;;;19.14;100.00
54600;BME280;40500;51.084;16.958;2023-08-01T00:41:49;99225.27;;;19.11;100.00
54600;BME280;40500;51.084;16.958;2023-08-01T00:44:32;99220.04;;;19.07;100.00
54600;BME280;40500;51.084;16.958;2023-08-01T00:47:39;99215.29;;;19.04;100.00
54600;BME280;40500;51.084;16.958;2023-08-01T00:50:12;99209.58;;;19.02;100.00
54600;BME280;40500;51.084;16.958;2023-08-01T00:52:54;99204.79;;;19.00;100.00
54600;BME280;40500;51.084;16.958;2023-08-01T00:55:54;99197.04;;;18.96;100.00
54600;BME280;40500;51.084;16.958;2023-08-01T00:58:47;99193.71;;;18.93;100.00
54600;BME280;40500;51.084;16.958;2023-08-01T01:01:42;99186.09;;;18.90;100.00
54600;BME280;40500;51.084;16.958;2023-08-01T01:04:27;99187.39;;;18.87;100.00
54600;BME280;40500;51.084;16.958;2023-08-01T01:07:03;99182.83;;;18.84;100.00
54600;BME280;40500;51.084;16.958;2023-08-01T01:10:00;99174.31;;;18.78;100.00
54600;BME280;40500;51.084;16.958;2023-08-01T01:12:51;99173.25;;;18.73;100.00
54600;BME280;40500;51.084;16.958;2023-08-01T01:15:25;99167.95;;;18.68;100.00
54600;BME280;40500;51.084;16.958;2023-08-01T01:18:02;99167.01;;;18.64;100.00
54600;BME280;40500;51.084;16.958;2023-08-01T01:20:58;99156.84;;;18.59;100.00
54600;BME280;40500;51.084;16.958;2023-08-01T01:23:53;99153.92;;;18.55;100.00
54600;BME280;40500;51.084;16.958;2023-08-01T01:26:57;99152.92;;;18.51;100.00
54600;BME280;40500;51.084;16.958;2023-08-01T01:29:52;99150.74;;;18.47;100.00
54600;BME280;40500;51.084;16.958;2023-08-01T01:33:03;99146.00;;;18.44;100.00
54600;BME280;40500;51.084;16.958;2023-08-01T01:35:36;99139.09;;;18.41;100.00
54600;BME280;40500;51.084;16.958;2023-08-01T01:38:06;99139.00;;;18.40;100.00
54600;BME280;40500;51.084;16.958;2023-08-01T01:40:41;99134.46;;;18.39;100.00
54600;BME280;40500;51.084;16.958;2023-08-01T01:43:33;99129.99;;;18.37;100.00
54600;BME280;40500;51.084;16.958;2023-08-01T01:46:32;99124.27;;;18.35;100.00
54600;BME280;40500;51.084;16.958;2023-08-01T01:49:13;99123.98;;;18.34;100.00
54600;BME280;40500;51.084;16.958;2023-08-01T01:52:06;99121.02;;;18.33;100.00
54600;BME280;40500;51.084;16.958;2023-08-01T01:54:59;99122.02;;;18.32;100.00
54600;BME280;40500;51.084;16.958;2023-08-01T01:57:38;99117.19;;;18.32;100.00
54600;BME280;40500;51.084;16.958;2023-08-01T02:00:32;99120.16;;;18.33;100.00
54600;BME280;40500;51.084;16.958;2023-08-01T02:03:35;99113.18;;;18.34;100.00
54600;BME280;40500;51.084;16.958;2023-08-01T02:06:28;99109.76;;;18.35;100.00
54600;BME280;40500;51.084;16.958;2023-08-01T02:09:21;99105.77;;;18.36;100.00
54600;BME280;40500;51.084;16.958;2023-08-01T02:12:21;99108.29;;;18.38;100.00
54600;BME280;40500;51.084;16.958;2023-08-01T02:15:25;99103.05;;;18.40;100.00
54600;BME280;40500;51.084;16.958;2023-08-01T02:18:00;99100.04;;;18.39;100.00
54600;BME280;40500;51.084;16.958;2023-08-01T02:21:02;99099.35;;;18.39;100.00
54600;BME280;40500;51.084;16.958;2023-08-01T02:24:03;99097.46;;;18.38;100.00
54600;BME280;40500;51.084;16.958;2023-08-01T02:26:47;99100.56;;;18.37;100.00
54600;BME280;40500;51.084;16.958;2023-08-01T02:29:39;99096.39;;;18.36;100.00
54600;BME280;40500;51.084;16.958;2023-08-01T02:32:34;99091.50;;;18.35;100.00
54600;BME280;40500;51.084;16.958;2023-08-01T02:35:08;99088.04;;;18.34;100.00
54600;BME280;40500;51.084;16.958;2023-08-01T02:37:45;99087.52;;;18.33;100.00
54600;BME280;40500;51.084;16.958;2023-08-01T02:40:17;99077.16;;;18.32;100.00
54600;BME280;40500;51.084;16.958;2023-08-01T02:42:52;99075.34;;;18.30;100.00
54600;BME280;40500;51.084;16.958;2023-08-01T02:45:27;99068.50;;;18.29;100.00
54600;BME280;40500;51.084;16.958;2023-08-01T02:48:05;99068.54;;;18.29;100.00
54600;BME280;40500;51.084;16.958;2023-08-01T02:51:05;99066.89;;;18.27;100.00
54600;BME280;40500;51.084;16.958;2023-08-01T02:53:38;99064.95;;;18.24;100.00
54600;BME280;40500;51.084;16.958;2023-08-01T02:56:32;99064.98;;;18.24;100.00
54600;BME280;40500;51.084;16.958;2023-08-01T02:59:07;99065.23;;;18.23;100.00
54600;BME280;40500;51.084;16.958;2023-08-01T03:01:39;99060.30;;;18.22;100.00
54600;BME280;40500;51.084;16.958;2023-08-01T03:04:13;99059.98;;;18.22;100.00
54600;BME280;40500;51.084;16.958;2023-08-01T03:07:16;99056.27;;;18.19;100.00
54600;BME280;40500;51.084;16.958;2023-08-01T03:09:49;99051.36;;;18.18;100.00
54600;BME280;40500;51.084;16.958;2023-08-01T03:12:40;99046.38;;;18.18;100.00
54600;BME280;40500;51.084;16.958;2023-08-01T03:15:22;99042.12;;;18.18;100.00
54600;BME280;40500;51.084;16.958;2023-08-01T03:18:05;99038.98;;;18.17;100.00
54600;BME280;40500;51.084;16.958;2023-08-01T03:21:01;99040.25;;;18.17;100.00
54600;BME280;40500;51.084;16.958;2023-08-01T03:23:57;99029.81;;;18.17;100.00
54600;BME280;40500;51.084;16.958;2023-08-01T03:26:56;99028.39;;;18.17;100.00
54600;BME280;40500;51.084;16.958;2023-08-01T03:29:30;99024.48;;;18.17;100.00
54600;BME280;40500;51.084;16.958;2023-08-01T03:32:04;99024.80;;;18.18;100.00
54600;BME280;40500;51.084;16.958;2023-08-01T03:34:59;99016.25;;;18.18;100.00
54600;BME280;40500;51.084;16.958;2023-08-01T03:37:33;99015.33;;;18.19;100.00
54600;BME280;40500;51.084;16.958;2023-08-01T03:40:10;99013.66;;;18.20;100.00
54600;BME280;40500;51.084;16.958;2023-08-01T03:42:50;99012.24;;;18.23;100.00
54600;BME280;40500;51.084;16.958;2023-08-01T03:45:22;99013.27;;;18.23;100.00
54600;BME280;40500;51.084;16.958;2023-08-01T03:48:14;99011.10;;;18.27;100.00
54600;BME280;40500;51.084;16.958;2023-08-01T03:51:07;99010.27;;;18.28;100.00
54600;BME280;40500;51.084;16.958;2023-08-01T03:53:45;99008.55;;;18.32;100.00
54600;BME280;40500;51.084;16.958;2023-08-01T03:56:31;99004.63;;;18.35;100.00
54600;BME280;40500;51.084;16.958;2023-08-01T03:59:31;99005.27;;;18.39;100.00
54600;BME280;40500;51.084;16.958;2023-08-01T04:02:10;99002.14;;;18.41;100.00
54600;BME280;40500;51.084;16.958;2023-08-01T04:05:02;99003.35;;;18.41;100.00
54600;BME280;40500;51.084;16.958;2023-08-01T04:07:41;99004.31;;;18.42;100.00
54600;BME280;40500;51.084;16.958;2023-08-01T04:10:19;99001.36;;;18.44;100.00
54600;BME280;40500;51.084;16.958;2023-08-01T04:12:52;98998.15;;;18.47;100.00
54600;BME280;40500;51.084;16.958;2023-08-01T04:15:51;98999.27;;;18.51;100.00
54600;BME280;40500;51.084;16.958;2023-08-01T04:18:22;98995.33;;;18.54;100.00
54600;BME280;40500;51.084;16.958;2023-08-01T04:20:56;98998.66;;;18.54;100.00
54600;BME280;40500;51.084;16.958;2023-08-01T04:23:31;99004.67;;;18.55;100.00
54600;BME280;40500;51.084;16.958;2023-08-01T04:26:03;99008.70;;;18.53;100.00
54600;BME280;40500;51.084;16.958;2023-08-01T04:29:00;99010.02;;;18.47;100.00
54600;BME280;40500;51.084;16.958;2023-08-01T04:31:39;99007.21;;;18.44;100.00
54600;BME280;40500;51.084;16.958;2023-08-01T04:34:16;99002.96;;;18.39;100.00
54600;BME280;40500;51.084;16.958;2023-08-01T04:37:09;99000.23;;;18.35;100.00
54600;BME280;40500;51.084;16.958;2023-08-01T04:39:43;98996.34;;;18.32;100.00
54600;BME280;40500;51.084;16.958;2023-08-01T04:42:16;98990.11;;;18.30;100.00
54600;BME280;40500;51.084;16.958;2023-08-01T04:44:53;98984.70;;;18.29;100.00
54600;BME280;40500;51.084;16.958;2023-08-01T04:47:27;98991.09;;;18.29;100.00
54600;BME280;40500;51.084;16.958;2023-08-01T04:50:18;98992.73;;;18.28;100.00
54600;BME280;40500;51.084;16.958;2023-08-01T04:53:12;98987.44;;;18.28;100.00
54600;BME280;40500;51.084;16.958;2023-08-01T04:59:20;98992.27;;;18.27;100.00
54600;BME280;40500;51.084;16.958;2023-08-01T05:01:55;98998.52;;;18.27;100.00
54600;BME280;40500;51.084;16.958;2023-08-01T05:04:43;98999.02;;;18.24;100.00
54600;BME280;40500;51.084;16.958;2023-08-01T05:07:39;98994.76;;;18.22;100.00
54600;BME280;40500;51.084;16.958;2023-08-01T05:10:35;98998.34;;;18.21;100.00
54600;BME280;40500;51.084;16.958;2023-08-01T05:13:29;98990.86;;;18.19;100.00
54600;BME280;40500;51.084;16.958;2023-08-01T05:16:10;98992.70;;;18.16;100.00
54600;BME280;40500;51.084;16.958;2023-08-01T05:18:57;98983.23;;;18.09;100.00
54600;BME280;40500;51.084;16.958;2023-08-01T05:21:32;98979.02;;;18.06;100.00
54600;BME280;40500;51.084;16.958;2023-08-01T05:24:27;98971.67;;;18.02;100.00
54600;BME280;40500;51.084;16.958;2023-08-01T05:27:20;98966.05;;;17.96;100.00
54600;BME280;40500;51.084;16.958;2023-08-01T05:30:12;98964.70;;;17.90;100.00
54600;BME280;40500;51.084;16.958;2023-08-01T05:32:53;98962.58;;;17.85;100.00
54600;BME280;40500;51.084;16.958;2023-08-01T05:35:25;98964.65;;;17.83;100.00
54600;BME280;40500;51.084;16.958;2023-08-01T05:38:20;98970.72;;;17.82;100.00
54600;BME280;40500;51.084;16.958;2023-08-01T05:41:11;98972.27;;;17.83;100.00
54600;BME280;40500;51.084;16.958;2023-08-01T05:44:18;98973.70;;;17.86;100.00
54600;BME280;40500;51.084;16.958;2023-08-01T05:46:53;98974.47;;;17.88;100.00
54600;BME280;40500;51.084;16.958;2023-08-01T05:49:44;98968.60;;;17.88;100.00
54600;BME280;40500;51.084;16.958;2023-08-01T05:52:37;98968.21;;;17.86;100.00
54600;BME280;40500;51.084;16.958;2023-08-01T05:55:28;98969.02;;;17.81;100.00
54600;BME280;40500;51.084;16.958;2023-08-01T05:58:01;98971.00;;;17.78;100.00
54600;BME280;40500;51.084;16.958;2023-08-01T06:00:46;98970.15;;;17.77;100.00
54600;BME280;40500;51.084;16.958;2023-08-01T06:03:22;98963.88;;;17.78;100.00
54600;BME280;40500;51.084;16.958;2023-08-01T06:05:56;98961.55;;;17.82;100.00
54600;BME280;40500;51.084;16.958;2023-08-01T06:08:28;98957.27;;;17.85;100.00
54600;BME280;40500;51.084;16.958;2023-08-01T06:10:58;98953.36;;;17.88;100.00
54600;BME280;40500;51.084;16.958;2023-08-01T06:13:29;98948.73;;;17.91;100.00
54600;BME280;40500;51.084;16.958;2023-08-01T06:16:00;98954.61;;;17.90;100.00
54600;BME280;40500;51.084;16.958;2023-08-01T06:18:30;98951.91;;;17.91;100.00
54600;BME280;40500;51.084;16.958;2023-08-01T06:21:01;98952.55;;;17.92;100.00
54600;BME280;40500;51.084;16.958;2023-08-01T06:23:32;98953.01;;;17.93;100.00
54600;BME280;40500;51.084;16.958;2023-08-01T06:26:03;98947.14;;;17.93;100.00
54600;BME280;40500;51.084;16.958;2023-08-01T06:28:59;98945.77;;;17.93;100.00
54600;BME280;40500;51.084;16.958;2023-08-01T06:31:37;98946.51;;;17.95;100.00
54600;BME280;40500;51.084;16.958;2023-08-01T06:34:25;98941.84;;;17.96;100.00
54600;BME280;40500;51.084;16.958;2023-08-01T06:37:17;98940.63;;;17.95;100.00
54600;BME280;40500;51.084;16.958;2023-08-01T06:39:51;98933.91;;;17.95;100.00
54600;BME280;40500;51.084;16.958;2023-08-01T06:42:22;98925.07;;;17.95;100.00
54600;BME280;40500;51.084;16.958;2023-08-01T06:44:52;98923.27;;;17.93;100.00
54600;BME280;40500;51.084;16.958;2023-08-01T06:47:22;98915.45;;;17.91;100.00
54600;BME280;40500;51.084;16.958;2023-08-01T06:49:53;98913.67;;;17.89;100.00
54600;BME280;40500;51.084;16.958;2023-08-01T06:52:24;98911.58;;;17.88;100.00
54600;BME280;40500;51.084;16.958;2023-08-01T06:54:54;98907.59;;;17.87;100.00
54600;BME280;40500;51.084;16.958;2023-08-01T06:57:25;98904.92;;;17.87;100.00
54600;BME280;40500;51.084;16.958;2023-08-01T06:59:56;98908.12;;;17.87;100.00
54600;BME280;40500;51.084;16.958;2023-08-01T07:02:27;98907.83;;;17.86;100.00
54600;BME280;40500;51.084;16.958;2023-08-01T07:04:57;98905.84;;;17.86;100.00
54600;BME280;40500;51.084;16.958;2023-08-01T07:07:27;98906.13;;;17.87;100.00
54600;BME280;40500;51.084;16.958;2023-08-01T07:09:58;98904.90;;;17.90;100.00
54600;BME280;40500;51.084;16.958;2023-08-01T07:12:28;98906.70;;;17.94;100.00
54600;BME280;40500;51.084;16.958;2023-08-01T07:14:59;98904.98;;;17.98;100.00
54600;BME280;40500;51.084;16.958;2023-08-01T07:17:31;98905.08;;;18.05;100.00
54600;BME280;40500;51.084;16.958;2023-08-01T07:20:01;98904.83;;;18.08;100.00
54600;BME280;40500;51.084;16.958;2023-08-01T07:22:32;98900.34;;;18.12;100.00
54600;BME280;40500;51.084;16.958;2023-08-01T07:25:03;98895.69;;;18.14;100.00
54600;BME280;40500;51.084;16.958;2023-08-01T07:27:33;98895.56;;;18.19;100.00
54600;BME280;40500;51.084;16.958;2023-08-01T07:30:09;98895.18;;;18.24;100.00
54600;BME280;40500;51.084;16.958;2023-08-01T07:32:40;98890.30;;;18.33;100.00
54600;BME280;40500;51.084;16.958;2023-08-01T07:35:12;98885.36;;;18.45;100.00
54600;BME280;40500;51.084;16.958;2023-08-01T07:37:43;98884.88;;;18.59;100.00
54600;BME280;40500;51.084;16.958;2023-08-01T07:40:13;98878.09;;;18.69;100.00
54600;BME280;40500;51.084;16.958;2023-08-01T07:42:44;98871.47;;;18.77;100.00
54600;BME280;40500;51.084;16.958;2023-08-01T07:45:16;98863.23;;;18.86;100.00
54600;BME280;40500;51.084;16.958;2023-08-01T07:47:46;98866.67;;;18.97;100.00
54600;BME280;40500;51.084;16.958;2023-08-01T07:50:18;98864.77;;;19.08;100.00
54600;BME280;40500;51.084;16.958;2023-08-01T07:52:48;98865.45;;;19.15;100.00
54600;BME280;40500;51.084;16.958;2023-08-01T07:55:19;98852.55;;;19.20;100.00
54600;BME280;40500;51.084;16.958;2023-08-01T07:57:51;98846.66;;;19.20;100.00
54600;BME280;40500;51.084;16.958;2023-08-01T08:00:21;98844.77;;;19.22;100.00
54600;BME280;40500;51.084;16.958;2023-08-01T08:02:53;98848.21;;;19.25;100.00
54600;BME280;40500;51.084;16.958;2023-08-01T08:05:25;98841.26;;;19.28;100.00
54600;BME280;40500;51.084;16.958;2023-08-01T08:07:55;98840.34;;;19.24;100.00
54600;BME280;40500;51.084;16.958;2023-08-01T08:10:26;98839.18;;;19.25;100.00
54600;BME280;40500;51.084;16.958;2023-08-01T08:12:56;98833.40;;;19.28;100.00
54600;BME280;40500;51.084;16.958;2023-08-01T08:15:27;98831.92;;;19.34;100.00
54600;BME280;40500;51.084;16.958;2023-08-01T08:18:02;98824.63;;;19.44;100.00
54600;BME280;40500;51.084;16.958;2023-08-01T08:20:42;98823.17;;;19.53;100.00
54600;BME280;40500;51.084;16.958;2023-08-01T08:23:13;98816.52;;;19.54;100.00
54600;BME280;40500;51.084;16.958;2023-08-01T08:25:44;98808.77;;;19.53;100.00
54600;BME280;40500;51.084;16.958;2023-08-01T08:28:16;98809.17;;;19.53;100.00
54600;BME280;40500;51.084;16.958;2023-08-01T08:30:48;98796.48;;;19.49;100.00
54600;BME280;40500;51.084;16.958;2023-08-01T08:33:22;98788.38;;;19.46;100.00
54600;BME280;40500;51.084;16.958;2023-08-01T08:36:06;98787.33;;;19.46;100.00
54600;BME280;40500;51.084;16.958;2023-08-01T08:38:37;98791.16;;;19.47;100.00
54600;BME280;40500;51.084;16.958;2023-08-01T08:41:13;98791.30;;;19.47;100.00
54600;BME280;40500;51.084;16.958;2023-08-01T08:43:44;98790.20;;;19.46;100.00
54600;BME280;40500;51.084;16.958;2023-08-01T08:46:18;98785.18;;;19.44;100.00
54600;BME280;40500;51.084;16.958;2023-08-01T08:48:50;98790.39;;;19.45;100.00
54600;BME280;40500;51.084;16.958;2023-08-01T08:51:21;98796.27;;;19.43;100.00
54600;BME280;40500;51.084;16.958;2023-08-01T08:53:53;98795.77;;;19.45;100.00
54600;BME280;40500;51.084;16.958;2023-08-01T08:56:24;98796.04;;;19.50;100.00
54600;BME280;40500;51.084;16.958;2023-08-01T08:58:55;98794.95;;;19.59;100.00
54600;BME280;40500;51.084;16.958;2023-08-01T09:01:27;98793.61;;;19.65;100.00
54600;BME280;40500;51.084;16.958;2023-08-01T09:03:57;98792.84;;;19.68;100.00
54600;BME280;40500;51.084;16.958;2023-08-01T09:06:32;98793.95;;;19.68;100.00
54600;BME280;40500;51.084;16.958;2023-08-01T09:09:11;98796.05;;;19.66;100.00
54600;BME280;40500;51.084;16.958;2023-08-01T09:11:45;98793.25;;;19.63;100.00
54600;BME280;40500;51.084;16.958;2023-08-01T09:14:17;98793.05;;;19.61;100.00
54600;BME280;40500;51.084;16.958;2023-08-01T09:16:50;98797.95;;;19.60;100.00
54600;BME280;40500;51.084;16.958;2023-08-01T09:19:23;98801.73;;;19.54;100.00
54600;BME280;40500;51.084;16.958;2023-08-01T09:21:57;98798.38;;;19.50;100.00
54600;BME280;40500;51.084;16.958;2023-08-01T09:24:28;98798.19;;;19.46;100.00
54600;BME280;40500;51.084;16.958;2023-08-01T09:27:05;98790.34;;;19.44;100.00
54600;BME280;40500;51.084;16.958;2023-08-01T09:29:37;98785.72;;;19.46;100.00
54600;BME280;40500;51.084;16.958;2023-08-01T09:32:14;98788.27;;;19.54;100.00
54600;BME280;40500;51.084;16.958;2023-08-01T09:34:47;98787.14;;;19.66;100.00
54600;BME280;40500;51.084;16.958;2023-08-01T09:37:28;98782.28;;;19.77;100.00
54600;BME280;40500;51.084;16.958;2023-08-01T09:40:09;98781.06;;;19.88;100.00
54600;BME280;40500;51.084;16.958;2023-08-01T09:42:40;98777.98;;;19.93;100.00
54600;BME280;40500;51.084;16.958;2023-08-01T09:45:15;98772.04;;;19.98;100.00
54600;BME280;40500;51.084;16.958;2023-08-01T09:47:46;98765.66;;;20.02;100.00
54600;BME280;40500;51.084;16.958;2023-08-01T09:50:23;98763.23;;;20.06;100.00
54600;BME280;40500;51.084;16.958;2023-08-01T09:52:53;98767.39;;;20.03;100.00
54600;BME280;40500;51.084;16.958;2023-08-01T09:55:31;98759.09;;;19.98;100.00
54600;BME280;40500;51.084;16.958;2023-08-01T09:58:02;98755.35;;;19.98;100.00
54600;BME280;40500;51.084;16.958;2023-08-01T10:00:36;98755.50;;;19.98;100.00
54600;BME280;40500;51.084;16.958;2023-08-01T10:03:07;98749.99;;;20.00;100.00
54600;BME280;40500;51.084;16.958;2023-08-01T10:05:40;98748.46;;;20.04;100.00
54600;BME280;40500;51.084;16.958;2023-08-01T10:08:21;98745.58;;;20.06;100.00
54600;BME280;40500;51.084;16.958;2023-08-01T10:10:53;98738.66;;;20.08;100.00
54600;BME280;40500;51.084;16.958;2023-08-01T10:13:33;98730.95;;;20.09;100.00
54600;BME280;40500;51.084;16.958;2023-08-01T10:16:04;98731.45;;;20.14;100.00
54600;BME280;40500;51.084;16.958;2023-08-01T10:18:37;98728.08;;;20.23;100.00
54600;BME280;40500;51.084;16.958;2023-08-01T10:21:11;98720.71;;;20.35;100.00
54600;BME280;40500;51.084;16.958;2023-08-01T10:23:43;98720.27;;;20.40;100.00
54600;BME280;40500;51.084;16.958;2023-08-01T10:26:15;98718.59;;;20.36;100.00
54600;BME280;40500;51.084;16.958;2023-08-01T10:28:52;98724.40;;;20.30;100.00
54600;BME280;40500;51.084;16.958;2023-08-01T10:31:22;98722.76;;;20.25;100.00
54600;BME280;40500;51.084;16.958;2023-08-01T10:34:02;98724.22;;;20.22;100.00
54600;BME280;40500;51.084;16.958;2023-08-01T10:36:34;98721.60;;;20.20;100.00
54600;BME280;40500;51.084;16.958;2023-08-01T10:39:04;98718.21;;;20.22;100.00
54600;BME280;40500;51.084;16.958;2023-08-01T10:41:36;98712.48;;;20.26;100.00
54600;BME280;40500;51.084;16.958;2023-08-01T10:44:11;98714.78;;;20.31;100.00
54600;BME280;40500;51.084;16.958;2023-08-01T10:46:50;98714.97;;;20.33;100.00
54600;BME280;40500;51.084;16.958;2023-08-01T10:49:32;98712.53;;;20.34;100.00
54600;BME280;40500;51.084;16.958;2023-08-01T10:52:04;98719.05;;;20.35;100.00
54600;BME280;40500;51.084;16.958;2023-08-01T10:54:46;98717.65;;;20.28;100.00
54600;BME280;40500;51.084;16.958;2023-08-01T10:57:20;98719.50;;;20.28;100.00
54600;BME280;40500;51.084;16.958;2023-08-01T10:59:50;98714.50;;;20.28;100.00
54600;BME280;40500;51.084;16.958;2023-08-01T11:02:25;98713.20;;;20.26;100.00
54600;BME280;40500;51.084;16.958;2023-08-01T11:05:00;98707.65;;;20.23;100.00
54600;BME280;40500;51.084;16.958;2023-08-01T11:07:34;98700.79;;;20.17;100.00
54600;BME280;40500;51.084;16.958;2023-08-01T11:10:09;98699.06;;;20.17;100.00
54600;BME280;40500;51.084;16.958;2023-08-01T11:12:42;98682.98;;;20.20;100.00
54600;BME280;40500;51.084;16.958;2023-08-01T11:15:14;98688.24;;;20.23;100.00
54600;BME280;40500;51.084;16.958;2023-08-01T11:17:48;98687.39;;;20.25;100.00
54600;BME280;40500;51.084;16.958;2023-08-01T11:20:23;98687.99;;;20.26;100.00
54600;BME280;40500;51.084;16.958;2023-08-01T11:22:56;98686.35;;;20.29;100.00
54600;BME280;40500;51.084;16.958;2023-08-01T11:25:36;98677.30;;;20.37;100.00
54600;BME280;40500;51.084;16.958;2023-08-01T11:28:09;98676.48;;;20.51;100.00
54600;BME280;40500;51.084;16.958;2023-08-01T11:30:40;98672.09;;;20.71;100.00
54600;BME280;40500;51.084;16.958;2023-08-01T11:33:17;98669.73;;;20.93;100.00
54600;BME280;40500;51.084;16.958;2023-08-01T11:35:53;98667.98;;;21.19;100.00
54600;BME280;40500;51.084;16.958;2023-08-01T11:38:27;98667.39;;;21.42;100.00
54600;BME280;40500;51.084;16.958;2023-08-01T11:40:59;98662.08;;;21.52;100.00
54600;BME280;40500;51.084;16.958;2023-08-01T11:43:40;98655.19;;;21.61;100.00
54600;BME280;40500;51.084;16.958;2023-08-01T11:46:11;98651.80;;;21.71;100.00
54600;BME280;40500;51.084;16.958;2023-08-01T11:48:45;98649.13;;;21.77;100.00
54600;BME280;40500;51.084;16.958;2023-08-01T11:51:17;98646.92;;;21.74;100.00
54600;BME280;40500;51.084;16.958;2023-08-01T11:53:47;98641.80;;;21.70;100.00
54600;BME280;40500;51.084;16.958;2023-08-01T11:56:27;98638.36;;;21.74;100.00
54600;BME280;40500;51.084;16.958;2023-08-01T11:58:58;98630.69;;;21.86;100.00
54600;BME280;40500;51.084;16.958;2023-08-01T12:01:29;98625.34;;;21.96;100.00
54600;BME280;40500;51.084;16.958;2023-08-01T12:03:59;98626.17;;;22.06;100.00
54600;BME280;40500;51.084;16.958;2023-08-01T12:06:32;98624.67;;;22.15;100.00
54600;BME280;40500;51.084;16.958;2023-08-01T12:09:09;98625.15;;;22.29;100.00
54600;BME280;40500;51.084;16.958;2023-08-01T12:11:38;98620.98;;;22.42;100.00
54600;BME280;40500;51.084;16.958;2023-08-01T12:14:11;98617.80;;;22.47;100.00
54600;BME280;40500;51.084;16.958;2023-08-01T12:16:45;98612.91;;;22.57;100.00
54600;BME280;40500;51.084;16.958;2023-08-01T12:19:19;98605.19;;;22.62;100.00
54600;BME280;40500;51.084;16.958;2023-08-01T12:21:50;98598.60;;;22.62;100.00
54600;BME280;40500;51.084;16.958;2023-08-01T12:24:21;98603.87;;;22.70;100.00
54600;BME280;40500;51.084;16.958;2023-08-01T12:26:52;98602.39;;;22.82;100.00
54600;BME280;40500;51.084;16.958;2023-08-01T12:29:22;98601.14;;;22.80;100.00
54600;BME280;40500;51.084;16.958;2023-08-01T12:31:55;98590.91;;;22.84;100.00
54600;BME280;40500;51.084;16.958;2023-08-01T12:34:25;98594.63;;;23.00;100.00
54600;BME280;40500;51.084;16.958;2023-08-01T12:36:56;98600.59;;;23.25;100.00
54600;BME280;40500;51.084;16.958;2023-08-01T12:39:26;98611.23;;;23.62;100.00
54600;BME280;40500;51.084;16.958;2023-08-01T12:41:57;98612.10;;;24.08;100.00
54600;BME280;40500;51.084;16.958;2023-08-01T12:44:30;98617.09;;;24.51;100.00
54600;BME280;40500;51.084;16.958;2023-08-01T12:47:00;98616.36;;;24.49;100.00
54600;BME280;40500;51.084;16.958;2023-08-01T12:49:31;98613.17;;;24.47;100.00
54600;BME280;40500;51.084;16.958;2023-08-01T12:52:04;98613.89;;;24.29;100.00
54600;BME280;40500;51.084;16.958;2023-08-01T12:54:35;98614.79;;;24.13;100.00
54600;BME280;40500;51.084;16.958;2023-08-01T12:57:06;98614.11;;;23.95;100.00
54600;BME280;40500;51.084;16.958;2023-08-01T12:59:37;98614.38;;;23.78;100.00
54600;BME280;40500;51.084;16.958;2023-08-01T13:02:08;98607.89;;;23.73;100.00
54600;BME280;40500;51.084;16.958;2023-08-01T13:04:39;98604.34;;;23.68;100.00
54600;BME280;40500;51.084;16.958;2023-08-01T13:07:10;98598.76;;;23.66;100.00
54600;BME280;40500;51.084;16.958;2023-08-01T13:09:42;98586.38;;;23.97;100.00
54600;BME280;40500;51.084;16.958;2023-08-01T13:12:12;98586.48;;;24.92;100.00
54600;BME280;40500;51.084;16.958;2023-08-01T13:14:44;98583.28;;;25.82;100.00
54600;BME280;40500;51.084;16.958;2023-08-01T13:17:14;98581.84;;;26.26;100.00
54600;BME280;40500;51.084;16.958;2023-08-01T13:19:45;98584.52;;;26.35;100.00
54600;BME280;40500;51.084;16.958;2023-08-01T13:22:16;98581.28;;;26.10;100.00
54600;BME280;40500;51.084;16.958;2023-08-01T13:24:48;98586.20;;;26.36;100.00
54600;BME280;40500;51.084;16.958;2023-08-01T13:27:20;98586.55;;;26.94;100.00
54600;BME280;40500;51.084;16.958;2023-08-01T13:29:52;98586.10;;;27.30;100.00
54600;BME280;40500;51.084;16.958;2023-08-01T13:32:23;98588.76;;;27.03;100.00
54600;BME280;40500;51.084;16.958;2023-08-01T13:34:55;98585.52;;;26.95;100.00
54600;BME280;40500;51.084;16.958;2023-08-01T13:37:26;98590.72;;;27.17;100.00
54600;BME280;40500;51.084;16.958;2023-08-01T13:39:59;98585.23;;;29.96;94.46
54600;BME280;40500;51.084;16.958;2023-08-01T13:42:32;98587.72;;;29.84;88.14